createdAt,value
2019-03-15T00:00:35.155Z,1.00
2019-03-15T00:01:35.142Z,0.80
2019-03-15T00:02:35.127Z,0.90
2019-03-15T00:03:35.111Z,0.70
2019-03-15T00:04:35.099Z,0.80
2019-03-15T00:05:35.089Z,0.90
2019-03-15T00:06:35.074Z,1.00
2019-03-15T00:07:35.102Z,0.90
2019-03-15T00:08:35.050Z,0.80
2019-03-15T00:09:35.033Z,0.90
2019-03-15T00:10:35.020Z,0.80
2019-03-15T00:11:35.005Z,0.80
2019-03-15T00:12:35.068Z,0.80
2019-03-15T00:13:34.979Z,0.90
2019-03-15T00:14:34.965Z,0.80
2019-03-15T00:15:34.954Z,0.80
2019-03-15T00:16:34.937Z,0.80
2019-03-15T00:17:34.923Z,1.00
2019-03-15T00:18:34.909Z,0.80
2019-03-15T00:19:34.896Z,0.90
2019-03-15T00:20:34.883Z,0.80
2019-03-15T00:21:34.874Z,0.90
2019-03-15T00:22:34.949Z,0.80
2019-03-15T00:23:34.842Z,1.00
2019-03-15T00:24:34.827Z,0.90
2019-03-15T00:25:34.813Z,0.90
2019-03-15T00:26:34.797Z,0.90
2019-03-15T00:27:34.785Z,1.00
2019-03-15T00:28:34.775Z,0.90
2019-03-15T00:29:34.760Z,0.90
2019-03-15T00:30:34.746Z,0.90
2019-03-15T00:31:34.729Z,1.10
2019-03-15T00:32:34.716Z,0.90
2019-03-15T00:33:34.706Z,1.00
2019-03-15T00:34:34.689Z,0.80
2019-03-15T00:35:34.741Z,1.00
2019-03-15T00:36:34.664Z,0.90
2019-03-15T00:37:34.650Z,0.90
2019-03-15T00:38:34.637Z,0.90
2019-03-15T00:39:34.623Z,1.10
2019-03-15T00:40:34.608Z,1.10
2019-03-15T00:41:34.597Z,0.90
2019-03-15T00:42:34.607Z,0.90
2019-03-15T00:43:34.568Z,1.10
2019-03-15T00:44:34.554Z,1.00
2019-03-15T00:45:34.542Z,0.90
2019-03-15T00:46:34.527Z,1.00
2019-03-15T00:47:34.515Z,1.10
2019-03-15T00:48:34.501Z,1.20
2019-03-15T00:49:34.494Z,1.10
2019-03-15T00:50:34.477Z,1.00
2019-03-15T00:51:34.460Z,1.10
2019-03-15T00:52:34.448Z,1.10
2019-03-15T00:53:34.433Z,1.00
2019-03-15T00:54:34.419Z,1.10
2019-03-15T00:55:34.407Z,1.40
2019-03-15T00:56:34.399Z,1.20
2019-03-15T00:57:34.380Z,1.20
2019-03-15T00:58:34.364Z,1.40
2019-03-15T00:59:34.351Z,1.20
2019-03-15T01:00:34.338Z,1.20
2019-03-15T01:01:34.326Z,0.90
2019-03-15T01:02:34.318Z,1.10
2019-03-15T01:03:34.297Z,1.30
2019-03-15T01:04:34.284Z,1.20
2019-03-15T01:05:34.274Z,1.30
2019-03-15T01:06:34.257Z,1.30
2019-03-15T01:07:34.246Z,1.30
2019-03-15T01:08:34.230Z,1.10
2019-03-15T01:09:34.218Z,1.40
2019-03-15T01:10:34.205Z,1.00
2019-03-15T01:11:34.336Z,1.10
2019-03-15T01:12:34.180Z,1.40
2019-03-15T01:13:34.169Z,1.20
2019-03-15T01:14:34.151Z,1.20
2019-03-15T01:15:34.140Z,1.00
2019-03-15T01:16:34.706Z,1.30
2019-03-15T01:17:34.113Z,1.30
2019-03-15T01:18:34.097Z,1.30
2019-03-15T01:19:34.081Z,1.30
2019-03-15T01:20:34.071Z,0.90
2019-03-15T01:21:34.056Z,1.30
2019-03-15T01:22:34.183Z,1.20
2019-03-15T01:23:34.031Z,1.40
2019-03-15T01:24:34.018Z,1.50
2019-03-15T01:25:34.004Z,1.10
2019-03-15T01:26:33.988Z,1.30
2019-03-15T01:27:33.977Z,1.30
2019-03-15T01:28:33.961Z,1.40
2019-03-15T01:29:33.951Z,1.40
2019-03-15T01:30:33.949Z,1.40
2019-03-15T01:31:33.922Z,1.30
2019-03-15T01:32:33.910Z,1.50
2019-03-15T01:33:33.898Z,1.10
2019-03-15T01:34:33.882Z,1.30
2019-03-15T01:35:34.121Z,1.30
2019-03-15T01:36:33.858Z,1.40
2019-03-15T01:37:33.845Z,1.30
2019-03-15T01:38:33.828Z,1.20
2019-03-15T01:39:33.816Z,1.10
2019-03-15T01:40:33.803Z,1.30
2019-03-15T01:41:33.789Z,1.30
2019-03-15T01:42:33.775Z,1.20
2019-03-15T01:43:33.764Z,1.20
2019-03-15T01:44:33.749Z,1.10
2019-03-15T01:45:33.738Z,1.20
2019-03-15T01:46:33.854Z,1.30
2019-03-15T01:47:33.710Z,1.30
2019-03-15T01:48:33.695Z,1.10
2019-03-15T01:49:33.765Z,1.40
2019-03-15T01:50:33.669Z,1.30
2019-03-15T01:51:33.661Z,1.20
2019-03-15T01:52:33.706Z,1.40
2019-03-15T01:53:33.637Z,1.20
2019-03-15T01:54:33.617Z,1.10
2019-03-15T01:55:33.605Z,1.30
2019-03-15T01:56:33.593Z,1.60
2019-03-15T01:57:33.577Z,1.20
2019-03-15T01:58:33.565Z,1.40
2019-03-15T01:59:33.551Z,1.20
2019-03-15T02:00:33.538Z,1.50
2019-03-15T02:01:33.525Z,1.50
2019-03-15T02:02:33.511Z,1.50
2019-03-15T02:03:33.503Z,1.00
2019-03-15T02:04:33.566Z,1.20
2019-03-15T02:05:33.471Z,1.20
2019-03-15T02:06:33.463Z,1.30
2019-03-15T02:07:34.606Z,1.50
2019-03-15T02:08:33.434Z,1.60
2019-03-15T02:09:33.420Z,1.20
2019-03-15T02:10:33.406Z,1.50
2019-03-15T02:11:33.394Z,1.30
2019-03-15T02:12:33.378Z,1.20
2019-03-15T02:13:33.367Z,1.30
2019-03-15T02:14:33.353Z,1.20
2019-03-15T02:15:33.340Z,1.40
2019-03-15T02:16:34.439Z,1.30
2019-03-15T02:17:33.313Z,1.60
2019-03-15T02:18:33.301Z,1.40
2019-03-15T02:19:33.286Z,1.30
2019-03-15T02:20:33.275Z,1.50
2019-03-15T02:21:33.262Z,1.50
2019-03-15T02:22:33.601Z,1.60
2019-03-15T02:23:33.236Z,1.30
2019-03-15T02:24:33.222Z,1.40
2019-03-15T02:25:33.209Z,1.30
2019-03-15T02:26:33.196Z,1.20
2019-03-15T02:27:33.183Z,1.40
2019-03-15T02:28:33.168Z,1.60
2019-03-15T02:29:33.158Z,1.30
2019-03-15T02:30:33.143Z,1.70
2019-03-15T02:31:33.132Z,1.40
2019-03-15T02:32:33.117Z,1.50
2019-03-15T02:33:33.596Z,1.50
2019-03-15T02:34:33.099Z,1.40
2019-03-15T02:35:33.077Z,1.80
2019-03-15T02:36:33.066Z,1.40
2019-03-15T02:37:33.738Z,1.50
2019-03-15T02:38:33.038Z,1.70
2019-03-15T02:39:33.027Z,1.30
2019-03-15T02:40:33.014Z,1.50
2019-03-15T02:41:33.001Z,1.40
2019-03-15T02:42:32.997Z,1.40
2019-03-15T02:43:32.972Z,1.70
2019-03-15T02:44:32.960Z,1.70
2019-03-15T02:45:33.124Z,1.60
2019-03-15T02:46:32.934Z,1.70
2019-03-15T02:47:32.931Z,1.50
2019-03-15T02:48:32.932Z,1.60
2019-03-15T02:49:32.953Z,1.60
2019-03-15T02:50:32.884Z,1.40
2019-03-15T02:51:33.133Z,1.40
2019-03-15T02:52:32.857Z,1.40
2019-03-15T02:53:32.847Z,1.50
2019-03-15T02:54:32.831Z,1.30
2019-03-15T02:55:32.818Z,1.40
2019-03-15T02:56:32.806Z,1.40
2019-03-15T02:57:32.793Z,1.50
2019-03-15T02:58:32.778Z,1.10
2019-03-15T02:59:32.766Z,1.50
2019-03-15T03:00:32.757Z,1.10
2019-03-15T03:01:33.941Z,1.40
2019-03-15T03:02:32.728Z,1.20
2019-03-15T03:03:32.712Z,1.30
2019-03-15T03:04:32.698Z,1.50
2019-03-15T03:05:34.358Z,1.20
2019-03-15T03:06:32.672Z,1.30
2019-03-15T03:07:32.662Z,1.40
2019-03-15T03:08:32.646Z,1.50
2019-03-15T03:09:34.162Z,1.20
2019-03-15T03:10:32.621Z,1.30
2019-03-15T03:11:32.609Z,1.40
2019-03-15T03:12:32.594Z,1.30
2019-03-15T03:13:32.586Z,1.10
2019-03-15T03:14:32.571Z,1.10
2019-03-15T03:15:32.556Z,1.10
2019-03-15T03:16:32.542Z,1.10
2019-03-15T03:17:32.532Z,1.10
2019-03-15T03:18:32.633Z,1.10
2019-03-15T03:19:32.509Z,1.10
2019-03-15T03:20:32.503Z,1.20
2019-03-15T03:21:32.483Z,1.20
2019-03-15T03:22:32.476Z,1.20
2019-03-15T03:23:32.461Z,1.20
2019-03-15T03:24:32.450Z,1.40
2019-03-15T03:25:32.425Z,1.30
2019-03-15T03:26:32.420Z,1.30
2019-03-15T03:27:34.033Z,1.00
2019-03-15T03:28:32.390Z,1.00
2019-03-15T03:29:32.384Z,1.30
2019-03-15T03:30:32.371Z,1.20
2019-03-15T03:31:32.350Z,1.20
2019-03-15T03:32:32.345Z,1.00
2019-03-15T03:33:32.323Z,1.30
2019-03-15T03:34:32.308Z,1.20
2019-03-15T03:35:32.296Z,1.20
2019-03-15T03:36:32.288Z,1.20
2019-03-15T03:37:32.273Z,1.20
2019-03-15T03:38:32.256Z,1.20
2019-03-15T03:39:32.243Z,1.20
2019-03-15T03:40:32.231Z,1.20
2019-03-15T03:41:32.219Z,1.20
2019-03-15T03:42:32.205Z,1.30
2019-03-15T03:43:32.196Z,1.20
2019-03-15T03:44:32.177Z,1.00
2019-03-15T03:45:32.166Z,1.30
2019-03-15T03:46:32.150Z,1.10
2019-03-15T03:47:32.803Z,0.90
2019-03-15T03:48:32.127Z,1.10
2019-03-15T03:49:32.115Z,0.90
2019-03-15T03:50:32.101Z,1.00
2019-03-15T03:51:32.087Z,1.50
2019-03-15T03:52:32.079Z,1.00
2019-03-15T03:53:32.061Z,0.90
2019-03-15T03:54:32.047Z,1.20
2019-03-15T03:55:32.036Z,1.10
2019-03-15T03:56:32.022Z,1.00
2019-03-15T03:57:32.010Z,1.00
2019-03-15T03:58:31.997Z,1.10
2019-03-15T03:59:31.986Z,1.30
2019-03-15T04:00:31.970Z,1.10
2019-03-15T04:01:32.029Z,1.10
2019-03-15T04:02:33.098Z,1.20
2019-03-15T04:03:31.932Z,1.00
2019-03-15T04:04:31.920Z,1.20
2019-03-15T04:05:31.911Z,1.20
2019-03-15T04:06:31.894Z,0.90
2019-03-15T04:07:31.880Z,1.00
2019-03-15T04:08:31.866Z,1.20
2019-03-15T04:09:31.878Z,1.00
2019-03-15T04:10:31.860Z,1.40
2019-03-15T04:11:31.832Z,1.00
2019-03-15T04:12:31.820Z,1.30
2019-03-15T04:13:31.803Z,1.00
2019-03-15T04:14:31.791Z,1.20
2019-03-15T04:15:31.777Z,1.20
2019-03-15T04:16:31.766Z,1.30
2019-03-15T04:17:31.751Z,1.00
2019-03-15T04:18:31.738Z,0.90
2019-03-15T04:19:31.726Z,1.00
2019-03-15T04:20:31.719Z,1.10
2019-03-15T04:21:31.701Z,1.10
2019-03-15T04:22:31.686Z,1.30
2019-03-15T04:23:31.674Z,0.80
2019-03-15T04:24:31.661Z,1.00
2019-03-15T04:25:31.652Z,0.90
2019-03-15T04:26:31.644Z,1.00
2019-03-15T04:27:31.623Z,1.30
2019-03-15T04:28:31.610Z,1.20
2019-03-15T04:29:31.596Z,1.10
2019-03-15T04:30:31.582Z,1.10
2019-03-15T04:31:31.570Z,1.50
2019-03-15T04:32:31.559Z,1.00
2019-03-15T04:33:31.544Z,0.80
2019-03-15T04:34:31.532Z,1.10
2019-03-15T04:35:31.521Z,1.00
2019-03-15T04:36:31.507Z,1.00
2019-03-15T04:37:31.495Z,1.00
2019-03-15T04:38:31.483Z,0.90
2019-03-15T04:39:31.472Z,0.80
2019-03-15T04:40:31.463Z,0.80
2019-03-15T04:41:31.444Z,1.00
2019-03-15T04:42:31.429Z,1.00
2019-03-15T04:43:31.416Z,1.00
2019-03-15T04:44:31.407Z,1.30
2019-03-15T04:45:31.392Z,1.20
2019-03-15T04:46:31.378Z,0.90
2019-03-15T04:47:31.367Z,1.00
2019-03-15T04:48:31.368Z,0.90
2019-03-15T04:49:31.349Z,0.80
2019-03-15T04:50:31.332Z,0.80
2019-03-15T04:51:31.316Z,0.90
2019-03-15T04:52:31.303Z,1.00
2019-03-15T04:53:31.300Z,1.00
2019-03-15T04:54:31.276Z,1.00
2019-03-15T04:55:31.263Z,1.10
2019-03-15T04:56:31.254Z,1.00
2019-03-15T04:57:31.241Z,1.00
2019-03-15T04:58:31.228Z,0.90
2019-03-15T04:59:31.212Z,1.20
2019-03-15T05:00:31.198Z,1.00
2019-03-15T05:01:31.189Z,1.30
2019-03-15T05:02:31.173Z,1.00
2019-03-15T05:03:31.162Z,1.00
2019-03-15T05:04:31.148Z,0.90
2019-03-15T05:05:31.142Z,0.90
2019-03-15T05:06:31.120Z,1.10
2019-03-15T05:07:31.110Z,1.30
2019-03-15T05:08:31.097Z,0.90
2019-03-15T05:09:31.091Z,0.90
2019-03-15T05:10:31.072Z,1.40
2019-03-15T05:11:31.059Z,1.00
2019-03-15T05:12:31.049Z,1.20
2019-03-15T05:13:31.034Z,1.30
2019-03-15T05:14:31.023Z,1.40
2019-03-15T05:15:31.009Z,1.30
2019-03-15T05:16:30.996Z,1.30
2019-03-15T05:17:30.984Z,0.90
2019-03-15T05:18:30.975Z,1.10
2019-03-15T05:19:30.958Z,1.10
2019-03-15T05:20:30.947Z,1.20
2019-03-15T05:21:30.935Z,1.30
2019-03-15T05:22:30.922Z,1.30
2019-03-15T05:23:30.908Z,1.00
2019-03-15T05:24:30.898Z,1.10
2019-03-15T05:25:30.884Z,1.00
2019-03-15T05:26:30.872Z,1.20
2019-03-15T05:27:30.858Z,1.10
2019-03-15T05:28:30.844Z,1.00
2019-03-15T05:29:30.835Z,1.20
2019-03-15T05:30:30.820Z,1.10
2019-03-15T05:31:30.811Z,1.30
2019-03-15T05:32:31.161Z,1.00
2019-03-15T05:33:30.781Z,1.00
2019-03-15T05:34:30.771Z,1.10
2019-03-15T05:35:30.756Z,1.30
2019-03-15T05:36:30.751Z,1.50
2019-03-15T05:37:30.735Z,1.30
2019-03-15T05:38:30.716Z,1.10
2019-03-15T05:39:30.705Z,1.20
2019-03-15T05:40:30.694Z,1.20
2019-03-15T05:41:30.680Z,1.10
2019-03-15T05:42:30.666Z,1.20
2019-03-15T05:43:30.658Z,1.10
2019-03-15T05:44:30.643Z,1.30
2019-03-15T05:45:30.632Z,1.70
2019-03-15T05:46:30.615Z,1.30
2019-03-15T05:47:30.603Z,1.40
2019-03-15T05:48:30.593Z,1.20
2019-03-15T05:49:30.580Z,1.30
2019-03-15T05:50:30.564Z,1.20
2019-03-15T05:51:30.560Z,1.10
2019-03-15T05:52:30.551Z,1.20
2019-03-15T05:53:30.529Z,1.40
2019-03-15T05:54:30.516Z,1.30
2019-03-15T05:55:30.502Z,1.10
2019-03-15T05:56:30.489Z,1.30
2019-03-15T05:57:30.476Z,1.40
2019-03-15T05:58:30.463Z,1.50
2019-03-15T05:59:30.449Z,1.40
2019-03-15T06:00:30.440Z,1.20
2019-03-15T06:01:30.426Z,1.40
2019-03-15T06:02:30.410Z,1.10
2019-03-15T06:03:30.398Z,1.40
2019-03-15T06:04:30.387Z,1.60
2019-03-15T06:05:30.375Z,1.30
2019-03-15T06:06:30.365Z,1.20
2019-03-15T06:07:30.350Z,1.30
2019-03-15T06:08:30.338Z,1.40
2019-03-15T06:09:30.326Z,1.30
2019-03-15T06:10:30.311Z,1.60
2019-03-15T06:11:30.298Z,1.30
2019-03-15T06:12:30.284Z,1.50
2019-03-15T06:13:30.276Z,1.30
2019-03-15T06:14:30.261Z,1.50
2019-03-15T06:15:30.249Z,1.50
2019-03-15T06:16:30.237Z,1.30
2019-03-15T06:17:30.223Z,1.50
2019-03-15T06:18:30.209Z,1.70
2019-03-15T06:19:30.195Z,1.40
2019-03-15T06:20:30.185Z,1.60
2019-03-15T06:21:30.172Z,1.80
2019-03-15T06:22:30.161Z,1.40
2019-03-15T06:23:30.152Z,1.50
2019-03-15T06:24:30.135Z,1.30
2019-03-15T06:25:30.122Z,1.40
2019-03-15T06:26:30.108Z,1.30
2019-03-15T06:27:31.329Z,1.70
2019-03-15T06:28:30.083Z,1.20
2019-03-15T06:29:30.072Z,1.30
2019-03-15T06:30:30.057Z,1.50
2019-03-15T06:31:30.046Z,1.30
2019-03-15T06:32:30.035Z,1.30
2019-03-15T06:33:30.022Z,1.20
2019-03-15T06:34:30.007Z,1.10
2019-03-15T06:35:29.996Z,1.00
2019-03-15T06:36:29.985Z,1.00
2019-03-15T06:37:29.969Z,1.00
2019-03-15T06:38:29.957Z,1.00
2019-03-15T06:39:29.943Z,0.90
2019-03-15T06:40:29.933Z,1.10
2019-03-15T06:41:29.921Z,1.00
2019-03-15T06:42:29.907Z,0.90
2019-03-15T06:43:29.894Z,1.10
2019-03-15T06:44:29.882Z,1.10
2019-03-15T06:45:31.804Z,1.30
2019-03-15T06:46:29.857Z,1.20
2019-03-15T06:47:30.111Z,1.00
2019-03-15T06:48:29.832Z,0.90
2019-03-15T06:49:29.820Z,1.10
2019-03-15T06:50:29.806Z,0.90
2019-03-15T06:51:29.796Z,0.90
2019-03-15T06:52:29.787Z,1.10
2019-03-15T06:53:29.768Z,1.00
2019-03-15T06:54:29.757Z,1.10
2019-03-15T06:55:29.743Z,1.00
2019-03-15T06:56:29.734Z,0.80
2019-03-15T06:57:29.717Z,1.10
2019-03-15T06:58:29.702Z,1.00
2019-03-15T06:59:29.692Z,0.90
2019-03-15T07:00:29.680Z,0.80
2019-03-15T07:01:29.668Z,0.90
2019-03-15T07:02:29.654Z,0.80
2019-03-15T07:03:29.647Z,1.10
2019-03-15T07:04:29.632Z,0.80
2019-03-15T07:05:29.617Z,0.90
2019-03-15T07:06:29.608Z,0.80
2019-03-15T07:07:29.592Z,0.70
2019-03-15T07:08:29.578Z,0.90
2019-03-15T07:09:30.894Z,0.70
2019-03-15T07:10:29.557Z,0.90
2019-03-15T07:11:29.542Z,0.80
2019-03-15T07:12:29.529Z,0.60
2019-03-15T07:13:29.517Z,0.80
2019-03-15T07:14:29.504Z,0.70
2019-03-15T07:15:29.490Z,0.80
2019-03-15T07:16:29.483Z,0.70
2019-03-15T07:17:29.474Z,0.70
2019-03-15T07:18:29.454Z,0.80
2019-03-15T07:19:30.622Z,0.80
2019-03-15T07:20:29.430Z,0.80
2019-03-15T07:21:29.422Z,0.70
2019-03-15T07:22:29.405Z,0.80
2019-03-15T07:23:29.392Z,0.60
2019-03-15T07:24:29.381Z,0.80
2019-03-15T07:25:29.370Z,0.70
2019-03-15T07:26:29.355Z,0.70
2019-03-15T07:27:29.342Z,0.70
2019-03-15T07:28:29.333Z,0.80
2019-03-15T07:29:29.317Z,0.80
2019-03-15T07:30:29.303Z,0.80
2019-03-15T07:31:29.292Z,0.80
2019-03-15T07:32:29.281Z,0.80
2019-03-15T07:33:29.268Z,0.70
2019-03-15T07:34:29.258Z,0.80
2019-03-15T07:35:29.242Z,0.80
2019-03-15T07:36:29.229Z,0.80
2019-03-15T07:37:29.222Z,0.90
2019-03-15T07:38:29.208Z,0.90
2019-03-15T07:39:29.199Z,0.70
2019-03-15T07:40:29.183Z,0.80
2019-03-15T07:41:29.176Z,0.90
2019-03-15T07:42:29.156Z,0.80
2019-03-15T07:43:29.148Z,0.80
2019-03-15T07:44:29.135Z,0.70
2019-03-15T07:45:29.120Z,0.60
2019-03-15T07:46:29.111Z,0.70
2019-03-15T07:47:29.095Z,0.80
2019-03-15T07:48:29.087Z,0.90
2019-03-15T07:49:29.075Z,0.60
2019-03-15T07:50:29.059Z,0.90
2019-03-15T07:51:29.047Z,0.60
2019-03-15T07:52:29.036Z,0.70
2019-03-15T07:53:29.024Z,0.80
2019-03-15T07:54:37.940Z,0.60
2019-03-15T07:55:28.998Z,0.70
2019-03-15T07:56:28.986Z,0.80
2019-03-15T07:57:28.979Z,0.80
2019-03-15T07:58:28.961Z,0.70
2019-03-15T07:59:28.950Z,0.70
2019-03-15T08:00:28.939Z,0.80
2019-03-15T08:01:28.929Z,0.80
2019-03-15T08:02:28.913Z,0.80
2019-03-15T08:03:28.902Z,0.70
2019-03-15T08:04:29.252Z,0.80
2019-03-15T08:05:28.879Z,0.60
2019-03-15T08:06:34.859Z,0.80
2019-03-15T08:07:36.385Z,0.90
2019-03-15T08:08:28.870Z,0.60
2019-03-15T08:09:28.827Z,0.80
2019-03-15T08:10:28.815Z,0.60
2019-03-15T08:11:28.802Z,0.60
2019-03-15T08:12:28.789Z,0.70
2019-03-15T08:13:28.778Z,0.70
2019-03-15T08:14:28.766Z,0.70
2019-03-15T08:15:28.755Z,0.70
2019-03-15T08:16:28.743Z,0.70
2019-03-15T08:17:28.731Z,0.60
2019-03-15T08:18:28.718Z,0.80
2019-03-15T08:19:28.707Z,0.90
2019-03-15T08:20:28.692Z,0.80
2019-03-15T08:21:28.681Z,0.80
2019-03-15T08:22:28.670Z,0.80
2019-03-15T08:23:28.655Z,0.70
2019-03-15T08:24:28.644Z,0.80
2019-03-15T08:25:28.631Z,0.60
2019-03-15T08:26:30.223Z,0.80
2019-03-15T08:27:28.606Z,0.80
2019-03-15T08:28:28.599Z,0.50
2019-03-15T08:29:28.584Z,0.70
2019-03-15T08:30:28.578Z,0.70
2019-03-15T08:31:28.558Z,0.90
2019-03-15T08:32:28.546Z,0.90
2019-03-15T08:33:28.536Z,0.70
2019-03-15T08:34:28.521Z,0.80
2019-03-15T08:35:28.515Z,0.80
2019-03-15T08:36:28.499Z,1.00
2019-03-15T08:37:28.489Z,1.30
2019-03-15T08:38:28.517Z,1.30
2019-03-15T08:39:28.465Z,0.90
2019-03-15T08:40:28.453Z,0.90
2019-03-15T08:41:28.442Z,0.90
2019-03-15T08:42:28.427Z,0.80
2019-03-15T08:43:28.415Z,0.70
2019-03-15T08:44:28.405Z,0.70
2019-03-15T08:45:28.401Z,0.60
2019-03-15T08:46:28.378Z,0.70
2019-03-15T08:47:28.370Z,0.70
2019-03-15T08:48:31.607Z,1.00
2019-03-15T08:49:28.344Z,0.70
2019-03-15T08:50:28.333Z,0.90
2019-03-15T08:51:28.319Z,0.60
2019-03-15T08:52:28.308Z,0.70
2019-03-15T08:53:28.297Z,0.60
2019-03-15T08:54:28.283Z,0.80
2019-03-15T08:55:28.272Z,0.80
2019-03-15T08:56:28.260Z,0.70
2019-03-15T08:57:28.248Z,0.60
2019-03-15T08:58:28.236Z,0.70
2019-03-15T08:59:28.226Z,0.70
2019-03-15T09:00:28.211Z,0.80
2019-03-15T09:01:28.202Z,0.70
2019-03-15T09:02:28.188Z,0.70
2019-03-15T09:03:28.599Z,0.80
2019-03-15T09:04:28.162Z,0.70
2019-03-15T09:05:28.150Z,0.80
2019-03-15T09:06:28.141Z,0.70
2019-03-15T09:07:28.126Z,0.70
2019-03-15T09:08:28.115Z,0.90
2019-03-15T09:09:28.103Z,0.80
2019-03-15T09:10:28.090Z,0.60
2019-03-15T09:11:28.079Z,0.60
2019-03-15T09:12:28.068Z,0.80
2019-03-15T09:13:28.055Z,0.80
2019-03-15T09:14:28.043Z,0.90
2019-03-15T09:15:28.034Z,0.60
2019-03-15T09:16:28.019Z,0.70
2019-03-15T09:17:28.012Z,0.80
2019-03-15T09:18:27.996Z,0.80
2019-03-15T09:19:27.985Z,0.70
2019-03-15T09:20:30.326Z,0.70
2019-03-15T09:21:27.961Z,0.80
2019-03-15T09:22:27.948Z,0.80
2019-03-15T09:23:27.943Z,0.60
2019-03-15T09:24:27.926Z,0.80
2019-03-15T09:25:27.918Z,0.90
2019-03-15T09:26:27.901Z,0.70
2019-03-15T09:27:27.895Z,0.80
2019-03-15T09:28:27.879Z,0.80
2019-03-15T09:29:27.868Z,0.70
2019-03-15T09:30:27.859Z,0.80
2019-03-15T09:31:27.846Z,1.00
2019-03-15T09:32:27.838Z,0.80
2019-03-15T09:33:27.826Z,0.90
2019-03-15T09:34:27.813Z,0.70
2019-03-15T09:35:27.799Z,1.10
2019-03-15T09:36:27.791Z,0.90
2019-03-15T09:37:27.777Z,0.70
2019-03-15T09:38:27.763Z,1.00
2019-03-15T09:39:27.751Z,1.00
2019-03-15T09:40:27.741Z,0.90
2019-03-15T09:41:33.461Z,0.80
2019-03-15T09:42:27.717Z,0.80
2019-03-15T09:43:27.705Z,0.80
2019-03-15T09:44:27.693Z,0.80
2019-03-15T09:45:27.687Z,0.90
2019-03-15T09:46:27.671Z,0.90
2019-03-15T09:47:27.658Z,0.90
2019-03-15T09:48:27.648Z,0.90
2019-03-15T09:49:27.637Z,0.80
2019-03-15T09:50:36.054Z,0.90
2019-03-15T09:51:27.615Z,0.70
2019-03-15T09:52:27.600Z,1.00
2019-03-15T09:53:27.591Z,0.80
2019-03-15T09:54:27.606Z,0.80
2019-03-15T09:55:32.748Z,0.90
2019-03-15T09:56:27.949Z,0.70
2019-03-15T09:57:27.542Z,0.80
2019-03-15T09:58:27.530Z,0.80
2019-03-15T09:59:27.519Z,0.80
2019-03-15T10:00:27.514Z,0.90
2019-03-15T10:01:34.829Z,0.90
2019-03-15T10:02:30.711Z,0.90
2019-03-15T10:03:27.473Z,0.70
2019-03-15T10:04:27.466Z,0.80
2019-03-15T10:05:27.452Z,0.70
2019-03-15T10:06:27.439Z,0.90
2019-03-15T10:07:37.683Z,0.90
2019-03-15T10:08:27.419Z,0.70
2019-03-15T10:09:27.406Z,0.80
2019-03-15T10:10:27.400Z,0.90
2019-03-15T10:11:27.386Z,0.90
2019-03-15T10:12:27.370Z,0.70
2019-03-15T10:13:27.368Z,0.80
2019-03-15T10:14:27.348Z,0.80
2019-03-15T10:15:27.339Z,0.80
2019-03-15T10:16:27.326Z,0.70
2019-03-15T10:17:27.317Z,0.80
2019-03-15T10:18:27.303Z,0.80
2019-03-15T10:19:29.770Z,0.80
2019-03-15T10:20:27.285Z,0.80
2019-03-15T10:21:27.270Z,0.80
2019-03-15T10:22:27.258Z,0.70
2019-03-15T10:23:27.245Z,0.90
2019-03-15T10:24:27.235Z,1.00
2019-03-15T10:25:27.222Z,0.90
2019-03-15T10:26:27.212Z,0.90
2019-03-15T10:27:27.218Z,0.80
2019-03-15T10:28:27.192Z,0.90
2019-03-15T10:29:27.179Z,0.70
2019-03-15T10:30:27.166Z,0.80
2019-03-15T10:31:27.197Z,0.80
2019-03-15T10:32:27.145Z,0.80
2019-03-15T10:33:27.132Z,0.80
2019-03-15T10:34:27.122Z,0.70
2019-03-15T10:35:27.109Z,0.70
2019-03-15T10:36:27.097Z,0.80
2019-03-15T10:37:27.089Z,0.60
2019-03-15T10:38:27.076Z,0.70
2019-03-15T10:39:27.066Z,0.60
2019-03-15T10:40:27.057Z,0.70
2019-03-15T10:41:27.045Z,0.80
2019-03-15T10:42:27.028Z,0.70
2019-03-15T10:43:27.017Z,0.70
2019-03-15T10:44:27.082Z,0.70
2019-03-15T10:45:26.996Z,0.80
2019-03-15T10:46:27.076Z,0.80
2019-03-15T10:47:26.972Z,0.80
2019-03-15T10:48:26.961Z,0.70
2019-03-15T10:49:26.951Z,0.80
2019-03-15T10:50:26.938Z,0.70
2019-03-15T10:51:26.928Z,0.80
2019-03-15T10:52:26.916Z,0.90
2019-03-15T10:53:26.906Z,0.90
2019-03-15T10:54:26.896Z,0.80
2019-03-15T10:55:26.884Z,0.70
2019-03-15T10:56:26.874Z,0.70
2019-03-15T10:57:26.859Z,0.80
2019-03-15T10:58:26.848Z,0.80
2019-03-15T10:59:26.838Z,0.80
2019-03-15T11:00:26.828Z,0.80
2019-03-15T11:01:26.815Z,1.10
2019-03-15T11:02:26.803Z,0.80
2019-03-15T11:03:26.794Z,1.00
2019-03-15T11:04:26.779Z,0.60
2019-03-15T11:05:26.768Z,0.90
2019-03-15T11:06:26.760Z,0.80
2019-03-15T11:07:26.745Z,0.70
2019-03-15T11:08:26.736Z,0.70
2019-03-15T11:09:26.736Z,0.80
2019-03-15T11:10:26.713Z,0.80
2019-03-15T11:11:26.703Z,0.70
2019-03-15T11:12:26.690Z,0.80
2019-03-15T11:13:26.679Z,0.80
2019-03-15T11:14:26.669Z,0.70
2019-03-15T11:15:26.657Z,0.80
2019-03-15T11:16:26.647Z,0.80
2019-03-15T11:17:26.636Z,0.60
2019-03-15T11:18:26.623Z,0.70
2019-03-15T11:19:26.612Z,0.90
2019-03-15T11:20:26.600Z,0.60
2019-03-15T11:21:26.591Z,0.70
2019-03-15T11:22:26.578Z,0.80
2019-03-15T11:23:26.566Z,0.70
2019-03-15T11:24:26.556Z,0.80
2019-03-15T11:25:26.544Z,1.00
2019-03-15T11:26:26.533Z,0.70
2019-03-15T11:27:26.523Z,0.90
2019-03-15T11:28:26.512Z,0.90
2019-03-15T11:29:26.500Z,0.90
2019-03-15T11:30:26.488Z,0.80
2019-03-15T11:31:26.479Z,0.90
2019-03-15T11:32:26.467Z,1.00
2019-03-15T11:33:26.456Z,0.90
2019-03-15T11:34:26.446Z,0.80
2019-03-15T11:35:26.438Z,0.90
2019-03-15T11:36:26.425Z,0.80
2019-03-15T11:37:26.414Z,1.00
2019-03-15T11:38:26.400Z,0.70
2019-03-15T11:39:26.389Z,0.70
2019-03-15T11:40:26.377Z,0.70
2019-03-15T11:41:26.368Z,0.70
2019-03-15T11:42:26.359Z,0.70
2019-03-15T11:43:26.346Z,0.70
2019-03-15T11:44:26.338Z,0.80
2019-03-15T11:45:26.325Z,0.80
2019-03-15T11:46:26.312Z,0.70
2019-03-15T11:47:26.329Z,0.80
2019-03-15T11:48:26.289Z,0.80
2019-03-15T11:49:28.304Z,0.80
2019-03-15T11:50:26.267Z,0.80
2019-03-15T11:51:26.256Z,0.70
2019-03-15T11:52:26.247Z,0.70
2019-03-15T11:53:26.234Z,0.80
2019-03-15T11:54:26.228Z,0.80
2019-03-15T11:55:26.211Z,0.70
2019-03-15T11:56:27.357Z,0.70
2019-03-15T11:57:26.190Z,0.50
2019-03-15T11:58:26.180Z,0.90
2019-03-15T11:59:26.168Z,0.60
2019-03-15T12:00:26.158Z,0.80
2019-03-15T12:01:26.148Z,0.70
2019-03-15T12:02:26.134Z,0.70
2019-03-15T12:03:26.122Z,0.80
2019-03-15T12:04:26.113Z,0.70
2019-03-15T12:05:26.100Z,0.60
2019-03-15T12:06:26.089Z,0.80
2019-03-15T12:07:26.077Z,0.60
2019-03-15T12:08:26.069Z,0.60
2019-03-15T12:09:26.058Z,0.90
2019-03-15T12:10:26.045Z,0.70
2019-03-15T12:11:26.035Z,0.90
2019-03-15T12:12:26.024Z,0.70
2019-03-15T12:13:26.012Z,0.70
2019-03-15T12:14:26.003Z,0.70
2019-03-15T12:15:25.991Z,0.60
2019-03-15T12:16:25.979Z,0.70
2019-03-15T12:17:25.971Z,0.80
2019-03-15T12:18:25.958Z,0.80
2019-03-15T12:19:25.946Z,0.70
2019-03-15T12:20:25.942Z,0.60
2019-03-15T12:21:25.930Z,0.70
2019-03-15T12:22:25.910Z,0.70
2019-03-15T12:23:25.902Z,0.70
2019-03-15T12:24:25.890Z,0.70
2019-03-15T12:25:25.882Z,0.70
2019-03-15T12:26:25.867Z,0.60
2019-03-15T12:27:25.854Z,0.80
2019-03-15T12:28:25.845Z,0.50
2019-03-15T12:29:25.836Z,0.60
2019-03-15T12:30:25.821Z,0.70
2019-03-15T12:31:25.811Z,0.80
2019-03-15T12:32:25.799Z,0.50
2019-03-15T12:33:25.793Z,0.70
2019-03-15T12:34:25.779Z,0.70
2019-03-15T12:35:25.779Z,0.70
2019-03-15T12:36:25.758Z,0.80
2019-03-15T12:37:25.744Z,0.70
2019-03-15T12:38:25.735Z,0.70
2019-03-15T12:39:25.724Z,0.80
2019-03-15T12:40:25.711Z,0.80
2019-03-15T12:41:25.703Z,0.70
2019-03-15T12:42:25.689Z,0.60
2019-03-15T12:43:25.680Z,0.70
2019-03-15T12:44:25.668Z,0.80
2019-03-15T12:45:25.670Z,0.60
2019-03-15T12:46:25.648Z,0.70
2019-03-15T12:47:25.637Z,0.80
2019-03-15T12:48:25.625Z,0.60
2019-03-15T12:49:25.858Z,0.80
2019-03-15T12:50:25.605Z,0.70
2019-03-15T12:51:32.180Z,0.70
2019-03-15T12:52:25.584Z,0.70
2019-03-15T12:53:25.572Z,0.80
2019-03-15T12:54:25.561Z,0.80
2019-03-15T12:55:25.549Z,0.80
2019-03-15T12:56:25.539Z,0.70
2019-03-15T12:57:25.528Z,0.70
2019-03-15T12:58:25.514Z,0.70
2019-03-15T12:59:25.504Z,0.60
2019-03-15T13:00:25.495Z,0.80
2019-03-15T13:01:25.482Z,0.70
2019-03-15T13:02:25.471Z,0.80
2019-03-15T13:03:25.460Z,0.70
2019-03-15T13:04:25.449Z,0.80
2019-03-15T13:05:25.441Z,0.70
2019-03-15T13:06:25.430Z,0.70
2019-03-15T13:07:25.417Z,0.60
2019-03-15T13:08:25.410Z,0.70
2019-03-15T13:09:25.398Z,0.60
2019-03-15T13:10:25.383Z,0.80
2019-03-15T13:11:25.378Z,0.70
2019-03-15T13:12:25.363Z,0.70
2019-03-15T13:13:25.351Z,0.70
2019-03-15T13:14:25.369Z,0.70
2019-03-15T13:15:25.329Z,0.60
2019-03-15T13:16:25.322Z,0.70
2019-03-15T13:17:25.314Z,0.60
2019-03-15T13:18:25.299Z,0.60